createdAt,value
2023-04-15T00:01:01.294Z,618.53
2023-04-15T00:03:28.722Z,621.83
2023-04-15T00:05:55.540Z,626.28
2023-04-15T00:08:22.172Z,621.60
2023-04-15T00:10:49.437Z,629.47
2023-04-15T00:13:16.617Z,626.70
2023-04-15T00:15:43.421Z,625.10
2023-04-15T00:18:10.050Z,635.67
2023-04-15T00:20:37.262Z,638.50
2023-04-15T00:23:04.237Z,630.33
2023-04-15T00:25:31.135Z,634.80
2023-04-15T00:27:57.785Z,640.30
2023-04-15T00:30:24.361Z,650.85
2023-04-15T00:32:51.056Z,647.05
2023-04-15T00:35:18.253Z,649.85
2023-04-15T00:37:46.174Z,650.78
2023-04-15T00:40:13.990Z,644.88
2023-04-15T00:42:40.987Z,642.30
2023-04-15T00:45:08.938Z,651.10
2023-04-15T00:47:37.671Z,634.45
2023-04-15T00:50:05.054Z,640.00
2023-04-15T00:52:32.097Z,635.45
2023-04-15T00:54:59.526Z,591.42
2023-04-15T00:57:27.127Z,589.10
2023-04-15T00:59:53.891Z,607.75
2023-04-15T01:02:21.288Z,608.50
2023-04-15T01:04:48.081Z,608.35
2023-04-15T01:07:14.716Z,620.22
2023-04-15T01:09:42.269Z,625.55
2023-04-15T01:12:12.077Z,630.78
2023-04-15T01:14:38.826Z,620.70
2023-04-15T01:17:05.400Z,626.88
2023-04-15T01:19:32.183Z,629.40
2023-04-15T01:21:59.112Z,625.35
2023-04-15T01:24:28.059Z,619.58
2023-04-15T01:26:54.622Z,612.60
2023-04-15T01:29:21.451Z,617.55
2023-04-15T01:31:52.713Z,606.85
2023-04-15T01:34:19.664Z,603.03
2023-04-15T01:36:46.871Z,597.25
2023-04-15T01:39:13.694Z,597.97
2023-04-15T01:41:42.296Z,596.78
2023-04-15T01:44:09.187Z,601.85
2023-04-15T01:46:36.462Z,609.55
2023-04-15T01:49:03.332Z,618.67
2023-04-15T01:51:29.931Z,614.78
2023-04-15T01:53:57.707Z,608.75
2023-04-15T01:56:24.578Z,616.13
2023-04-15T01:58:51.796Z,624.80
2023-04-15T02:01:20.075Z,626.85
2023-04-15T02:03:48.044Z,636.78
2023-04-15T02:06:14.947Z,630.97
2023-04-15T02:08:41.531Z,635.10
2023-04-15T02:11:08.487Z,623.30
2023-04-15T02:13:35.153Z,641.97
2023-04-15T02:16:01.877Z,635.70
2023-04-15T02:18:28.616Z,640.30
2023-04-15T02:20:57.336Z,636.70
2023-04-15T02:23:24.592Z,640.05
2023-04-15T02:25:53.346Z,600.08
2023-04-15T02:28:20.514Z,609.17
2023-04-15T02:30:52.782Z,606.65
2023-04-15T02:33:20.209Z,461.98
2023-04-15T02:35:47.338Z,431.30
2023-04-15T02:38:14.825Z,426.50
2023-04-15T02:40:41.607Z,405.85
2023-04-15T02:43:08.177Z,431.73
2023-04-15T02:45:34.840Z,427.65
2023-04-15T02:48:06.235Z,445.08
2023-04-15T02:50:33.167Z,389.00
2023-04-15T02:53:01.540Z,420.63
2023-04-15T02:55:29.152Z,372.95
2023-04-15T02:57:55.984Z,362.60
2023-04-15T03:00:25.218Z,400.67
2023-04-15T03:02:56.587Z,382.02
2023-04-15T03:05:26.535Z,390.50
2023-04-15T03:07:53.883Z,389.23
2023-04-15T03:10:21.582Z,407.45
2023-04-15T03:12:48.570Z,420.08
2023-04-15T03:15:15.635Z,355.20
2023-04-15T03:17:42.274Z,342.05
2023-04-15T03:20:09.624Z,374.60
2023-04-15T03:22:36.298Z,444.40
2023-04-15T03:25:02.890Z,406.75
2023-04-15T03:27:29.396Z,395.95
2023-04-15T03:29:56.851Z,393.67
2023-04-15T03:32:23.502Z,391.23
2023-04-15T03:34:50.296Z,444.27
2023-04-15T03:37:16.852Z,456.38
2023-04-15T03:39:43.394Z,458.90
2023-04-15T03:42:09.961Z,437.63
2023-04-15T03:44:37.196Z,436.45
2023-04-15T03:47:03.762Z,439.77
2023-04-15T03:49:30.514Z,461.75
2023-04-15T03:51:57.423Z,442.25
2023-04-15T03:54:23.940Z,423.58
2023-04-15T03:56:50.500Z,594.25
2023-04-15T03:59:17.051Z,780.90
2023-04-15T04:01:43.685Z,739.03
2023-04-15T04:04:10.881Z,735.92
2023-04-15T04:06:37.696Z,759.17
2023-04-15T04:09:04.241Z,791.03
2023-04-15T04:11:31.778Z,790.80
2023-04-15T04:13:58.337Z,797.17
2023-04-15T04:16:25.039Z,800.63
2023-04-15T04:18:51.632Z,812.05
2023-04-15T04:21:18.288Z,821.17
2023-04-15T04:23:44.901Z,809.42
2023-04-15T04:26:11.483Z,825.58
2023-04-15T04:28:40.638Z,838.20
2023-04-15T04:31:07.861Z,840.63
2023-04-15T04:33:34.564Z,829.40
2023-04-15T04:36:01.471Z,839.88
2023-04-15T04:38:28.103Z,842.95
2023-04-15T04:40:54.695Z,853.65
2023-04-15T04:43:21.717Z,849.28
2023-04-15T04:45:48.291Z,856.53
2023-04-15T04:48:14.868Z,854.28
2023-04-15T04:50:41.971Z,860.03
2023-04-15T04:53:08.641Z,859.72
2023-04-15T04:55:36.984Z,865.05
2023-04-15T04:58:03.482Z,863.33
2023-04-15T05:00:30.393Z,875.78
2023-04-15T05:02:57.144Z,872.35
2023-04-15T05:05:23.798Z,862.20
2023-04-15T05:07:50.735Z,866.05
2023-04-15T05:10:18.310Z,868.60
2023-04-15T05:12:45.031Z,863.40
2023-04-15T05:15:12.181Z,880.65
2023-04-15T05:17:38.848Z,878.47
2023-04-15T05:20:05.978Z,872.60
2023-04-15T05:22:32.702Z,873.65
2023-04-15T05:24:59.385Z,880.60
2023-04-15T05:27:26.023Z,884.22
2023-04-15T05:29:52.636Z,896.55
2023-04-15T05:32:19.261Z,903.78
2023-04-15T05:34:45.872Z,913.03
2023-04-15T05:37:12.813Z,921.65
2023-04-15T05:39:39.325Z,923.25
2023-04-15T05:42:06.215Z,924.20
2023-04-15T05:44:32.992Z,917.30
2023-04-15T05:46:59.612Z,917.60
2023-04-15T05:49:26.185Z,924.80
2023-04-15T05:51:52.859Z,928.05
2023-04-15T05:54:20.308Z,934.10
2023-04-15T05:56:46.983Z,936.63
2023-04-15T05:59:13.563Z,924.38
2023-04-15T06:01:40.296Z,934.22
2023-04-15T06:04:07.118Z,918.92
2023-04-15T06:06:33.732Z,924.17
2023-04-15T06:09:00.646Z,914.38
2023-04-15T06:11:27.424Z,924.33
2023-04-15T06:13:54.070Z,920.58
2023-04-15T06:16:20.660Z,919.45
2023-04-15T06:18:47.211Z,900.80
2023-04-15T06:21:13.920Z,896.28
2023-04-15T06:23:41.399Z,909.50
2023-04-15T06:26:08.501Z,918.42
2023-04-15T06:28:35.337Z,910.90
2023-04-15T06:31:02.027Z,927.22
2023-04-15T06:33:28.826Z,929.80
2023-04-15T06:35:55.409Z,954.28
2023-04-15T06:38:22.028Z,956.35
2023-04-15T06:40:48.581Z,942.45
2023-04-15T06:43:15.440Z,952.65
2023-04-15T06:45:41.963Z,943.80
2023-04-15T06:48:08.505Z,943.47
2023-04-15T06:50:35.796Z,957.65
2023-04-15T06:53:03.088Z,959.17
2023-04-15T06:55:29.832Z,948.05
2023-04-15T06:57:56.541Z,962.67
2023-04-15T07:00:23.350Z,953.50
2023-04-15T07:02:49.987Z,954.97
2023-04-15T07:05:16.740Z,968.88
2023-04-15T07:07:43.376Z,980.47
2023-04-15T07:10:11.965Z,979.75
2023-04-15T07:12:38.576Z,979.47
2023-04-15T07:15:05.754Z,991.83
2023-04-15T07:17:32.404Z,974.10
2023-04-15T07:19:59.013Z,992.45
2023-04-15T07:22:27.441Z,973.30
2023-04-15T07:24:54.011Z,978.78
2023-04-15T07:27:21.023Z,976.08
2023-04-15T07:29:48.319Z,999.70
2023-04-15T07:32:14.831Z,1006.00
2023-04-15T07:34:42.242Z,1005.08
2023-04-15T07:37:09.404Z,999.58
2023-04-15T07:39:36.000Z,1017.65
2023-04-15T07:42:03.925Z,1009.58
2023-04-15T07:44:30.517Z,1008.88
2023-04-15T07:46:57.311Z,1034.38
2023-04-15T07:49:23.872Z,1016.75
2023-04-15T07:51:51.112Z,1018.78
2023-04-15T07:54:17.656Z,1040.63
2023-04-15T07:56:44.222Z,1036.38
2023-04-15T07:59:11.656Z,1031.72
2023-04-15T08:01:38.991Z,1049.75
2023-04-15T08:04:05.758Z,1057.75
2023-04-15T08:06:33.253Z,1058.72
2023-04-15T08:09:00.204Z,1058.00
2023-04-15T08:11:27.852Z,1078.65
2023-04-15T08:13:54.475Z,1083.15
2023-04-15T08:16:27.615Z,1067.43
2023-04-15T08:18:57.790Z,1065.85
2023-04-15T08:21:25.041Z,1070.10
2023-04-15T08:23:53.401Z,1082.78
2023-04-15T08:26:21.326Z,1079.63
2023-04-15T08:28:49.288Z,1087.90
2023-04-15T08:31:17.506Z,1083.55
2023-04-15T08:33:44.512Z,1078.45
2023-04-15T08:36:11.055Z,983.00
2023-04-15T08:38:38.079Z,995.33
2023-04-15T08:41:12.342Z,999.33
2023-04-15T08:43:50.665Z,1021.55
2023-04-15T08:46:17.796Z,1057.07
2023-04-15T08:48:45.672Z,1050.93
2023-04-15T08:51:16.053Z,1060.35
2023-04-15T08:53:47.507Z,1069.35
2023-04-15T08:56:16.894Z,1073.28
2023-04-15T08:58:47.138Z,1074.50
2023-04-15T09:01:13.910Z,1073.22
2023-04-15T09:03:42.095Z,1046.40
2023-04-15T09:06:09.058Z,1054.43
2023-04-15T09:08:35.940Z,1061.30
2023-04-15T09:11:05.784Z,1068.20
2023-04-15T09:13:32.277Z,1079.00
2023-04-15T09:15:58.828Z,1070.45
2023-04-15T09:18:31.136Z,1090.07
2023-04-15T09:21:08.954Z,1071.65
2023-04-15T09:23:36.311Z,1078.90
2023-04-15T09:26:03.779Z,1059.55
2023-04-15T09:28:31.057Z,1071.00
2023-04-15T09:31:01.798Z,1056.03
2023-04-15T09:33:30.241Z,1079.57
2023-04-15T09:36:05.628Z,1050.13
2023-04-15T09:38:32.576Z,1047.65
2023-04-15T09:40:59.691Z,1017.15
2023-04-15T09:43:40.817Z,995.47
2023-04-15T09:46:07.533Z,1026.00
2023-04-15T09:48:34.073Z,1028.18
2023-04-15T09:51:02.171Z,1034.47
2023-04-15T09:53:30.570Z,1020.85
2023-04-15T09:56:03.380Z,1030.22
2023-04-15T09:58:34.868Z,1023.63
2023-04-15T10:01:04.620Z,1027.22
2023-04-15T10:03:36.887Z,1023.10
2023-04-15T10:06:05.613Z,1017.47
2023-04-15T10:08:34.969Z,1030.13
2023-04-15T10:11:05.492Z,1043.40
2023-04-15T10:13:37.405Z,1028.47
2023-04-15T10:16:11.945Z,1050.80
2023-04-15T10:18:42.890Z,1056.53
2023-04-15T10:21:09.510Z,1071.43
2023-04-15T10:23:36.802Z,1067.05
2023-04-15T10:26:04.854Z,1061.07
2023-04-15T10:28:31.496Z,1094.90
2023-04-15T10:30:59.862Z,1103.68
2023-04-15T10:33:27.806Z,1082.00
2023-04-15T10:35:56.155Z,1081.25
2023-04-15T10:38:43.391Z,1085.40
2023-04-15T10:41:17.776Z,1089.05
2023-04-15T10:43:57.905Z,1089.55
2023-04-15T10:46:35.280Z,1087.50
2023-04-15T10:49:13.442Z,1099.78
2023-04-15T10:51:42.717Z,1077.25
2023-04-15T10:54:14.913Z,1077.70
2023-04-15T10:56:45.381Z,1098.50
2023-04-15T10:59:11.992Z,1078.40
2023-04-15T11:01:53.256Z,1098.13
2023-04-15T11:04:51.575Z,1085.97
2023-04-15T11:07:40.002Z,1087.80
2023-04-15T11:10:32.450Z,1070.68
2023-04-15T11:13:02.280Z,1076.95
2023-04-15T11:15:33.189Z,1057.57
2023-04-15T11:18:10.124Z,1031.15
2023-04-15T11:20:38.191Z,1016.50
2023-04-15T11:23:13.907Z,1005.75
2023-04-15T11:25:43.215Z,1032.40
2023-04-15T11:28:11.439Z,1042.47
2023-04-15T11:30:39.655Z,1051.63
2023-04-15T11:33:09.260Z,1049.15
2023-04-15T11:35:36.685Z,1054.45
2023-04-15T11:38:05.340Z,1065.88
2023-04-15T11:40:33.530Z,1068.97
2023-04-15T11:43:15.846Z,1077.35
2023-04-15T11:45:58.105Z,1063.43
2023-04-15T11:48:35.810Z,1064.78
2023-04-15T11:51:04.305Z,1074.60
2023-04-15T11:53:44.129Z,1082.55
2023-04-15T11:56:17.187Z,1094.68
2023-04-15T11:58:44.791Z,1093.93
2023-04-15T12:01:11.883Z,1076.85
2023-04-15T12:03:41.421Z,1092.40
2023-04-15T12:06:21.306Z,1102.63
2023-04-15T12:08:49.420Z,1095.13
2023-04-15T12:11:17.053Z,1106.93
2023-04-15T12:13:51.356Z,1111.93
2023-04-15T12:16:21.805Z,1123.78
2023-04-15T12:18:52.323Z,1099.18
2023-04-15T12:21:34.575Z,1155.85
2023-04-15T12:24:04.821Z,1272.53
2023-04-15T12:26:37.540Z,1457.90
2023-04-15T12:29:08.552Z,1612.63
2023-04-15T12:31:47.346Z,1708.95
2023-04-15T12:34:14.635Z,1816.53
2023-04-15T12:36:41.224Z,1919.05
2023-04-15T12:39:07.772Z,1877.45
2023-04-15T12:41:34.358Z,1835.88
2023-04-15T12:44:01.505Z,1779.18
2023-04-15T12:46:28.513Z,1849.20
2023-04-15T12:48:55.151Z,1852.50
2023-04-15T12:51:21.832Z,1877.10
2023-04-15T12:53:49.674Z,1922.32
2023-04-15T12:56:17.044Z,1978.97
2023-04-15T12:58:43.626Z,1992.68
2023-04-15T13:01:11.217Z,1999.90
2023-04-15T13:03:37.992Z,1999.90
2023-04-15T13:06:05.172Z,1999.90
2023-04-15T13:08:32.138Z,1999.90
2023-04-15T13:10:58.814Z,1999.90
2023-04-15T13:13:25.665Z,1999.90
2023-04-15T13:15:52.221Z,1999.90
2023-04-15T13:18:19.061Z,1999.90
2023-04-15T13:20:45.581Z,1999.90
2023-04-15T13:23:12.362Z,1999.90
2023-04-15T13:25:38.899Z,1999.90
2023-04-15T13:28:05.510Z,1999.90
2023-04-15T13:30:32.332Z,1999.90
2023-04-15T13:32:59.142Z,1999.90
2023-04-15T13:35:25.864Z,1999.90
2023-04-15T13:37:54.020Z,1999.90
2023-04-15T13:40:20.577Z,1999.90
2023-04-15T13:42:47.195Z,1999.90
2023-04-15T13:45:13.912Z,1999.90
2023-04-15T13:47:40.659Z,1999.90
2023-04-15T13:50:07.749Z,1999.90
2023-04-15T13:52:34.311Z,1999.90
2023-04-15T13:55:07.460Z,1999.90
2023-04-15T13:57:47.387Z,1997.82
2023-04-15T14:00:14.581Z,1981.53
2023-04-15T14:02:42.314Z,1952.90
2023-04-15T14:05:09.483Z,1936.07
2023-04-15T14:07:36.595Z,1913.22
2023-04-15T14:10:04.036Z,1888.40
2023-04-15T14:12:30.780Z,1903.93
2023-04-15T14:14:57.358Z,1904.32
2023-04-15T14:17:24.004Z,1867.57
2023-04-15T14:19:50.678Z,1874.13
2023-04-15T14:22:18.910Z,1829.70
2023-04-15T14:24:45.725Z,1859.03
2023-04-15T14:27:12.588Z,1853.72
2023-04-15T14:29:39.176Z,1848.03
2023-04-15T14:32:12.157Z,1875.50
2023-04-15T14:37:06.432Z,1829.95
2023-04-15T14:39:33.015Z,1882.35
2023-04-15T14:41:59.582Z,1791.82
2023-04-15T14:44:26.079Z,1763.15
2023-04-15T14:46:52.792Z,1737.35
2023-04-15T14:49:19.783Z,1844.03
2023-04-15T14:51:46.496Z,1739.88
2023-04-15T14:54:13.089Z,1889.53
2023-04-15T14:56:39.702Z,1999.90
2023-04-15T14:59:06.319Z,1998.40
2023-04-15T15:01:33.826Z,1720.60
2023-04-15T15:04:00.745Z,1999.90
2023-04-15T15:06:27.842Z,1999.90
2023-04-15T15:08:54.420Z,1999.90
2023-04-15T15:11:21.157Z,1999.90
2023-04-15T15:13:47.719Z,1999.90
2023-04-15T15:16:14.822Z,1999.90
2023-04-15T15:18:41.556Z,1987.25
2023-04-15T15:21:08.075Z,1931.68
2023-04-15T15:23:34.622Z,1928.38
2023-04-15T15:26:01.280Z,1877.45
2023-04-15T15:28:27.850Z,1871.47
2023-04-15T15:30:54.735Z,1884.15
2023-04-15T15:33:21.641Z,1838.70
2023-04-15T15:35:48.226Z,1839.45
2023-04-15T15:38:14.930Z,1864.88
2023-04-15T15:40:41.577Z,1753.50
2023-04-15T15:43:08.192Z,1697.85
2023-04-15T15:45:35.896Z,1677.72
2023-04-15T15:48:02.781Z,1648.38
2023-04-15T15:50:29.410Z,1868.88
2023-04-15T15:52:56.128Z,1795.25
2023-04-15T15:55:23.412Z,1697.35
2023-04-15T15:57:50.069Z,1797.30
2023-04-15T16:00:17.167Z,1725.93
2023-04-15T16:05:13.571Z,1801.68
2023-04-15T16:07:40.108Z,1748.68
2023-04-15T16:10:07.304Z,1792.22
2023-04-15T16:12:35.025Z,1708.68
2023-04-15T16:15:01.855Z,1719.00
2023-04-15T16:17:28.436Z,1703.03
2023-04-15T16:19:57.932Z,1678.65
2023-04-15T16:22:27.409Z,1643.20
2023-04-15T16:24:54.095Z,1669.63
2023-04-15T16:27:20.906Z,1641.32
2023-04-15T16:29:47.476Z,1631.70
2023-04-15T16:32:14.139Z,1626.25
2023-04-15T16:34:41.342Z,1610.97
2023-04-15T16:37:08.107Z,1589.38
2023-04-15T16:39:34.764Z,1589.63
2023-04-15T16:42:02.564Z,1573.10
2023-04-15T16:44:29.304Z,1628.10
2023-04-15T16:46:56.398Z,1583.65
2023-04-15T16:49:22.937Z,1546.30
2023-04-15T16:51:49.528Z,1574.50
2023-04-15T16:54:16.240Z,1760.10
2023-04-15T16:56:42.781Z,1811.93
2023-04-15T16:59:09.300Z,1796.25
2023-04-15T17:01:36.232Z,1764.15
2023-04-15T17:04:02.980Z,1756.25
2023-04-15T17:06:30.726Z,1752.57
2023-04-15T17:08:57.263Z,1699.97
2023-04-15T17:11:23.807Z,1664.53
2023-04-15T17:13:50.967Z,1636.28
2023-04-15T17:16:17.562Z,1640.38
2023-04-15T17:18:44.612Z,1672.47
2023-04-15T17:21:11.253Z,1757.57
2023-04-15T17:23:37.823Z,1711.95
2023-04-15T17:26:04.376Z,1731.82
2023-04-15T17:28:30.947Z,1701.80
2023-04-15T17:30:57.610Z,1613.10
2023-04-15T17:33:55.427Z,1573.80
2023-04-15T17:36:11.164Z,1581.03
2023-04-15T17:38:37.717Z,1545.05
2023-04-15T17:41:04.818Z,1608.47
2023-04-15T17:43:31.978Z,1649.70
2023-04-15T17:45:58.828Z,1653.43
2023-04-15T17:48:26.128Z,1683.63
2023-04-15T17:50:52.680Z,1673.00
2023-04-15T17:53:19.263Z,1648.07
2023-04-15T17:55:46.469Z,1534.38
2023-04-15T17:58:13.039Z,1518.50
2023-04-15T18:00:39.580Z,1485.50
2023-04-15T18:03:06.270Z,1424.63
2023-04-15T18:05:32.948Z,1418.47
2023-04-15T18:07:59.542Z,1366.97
2023-04-15T18:10:26.104Z,1460.85
2023-04-15T18:12:52.672Z,1382.50
2023-04-15T18:15:19.198Z,1428.68
2023-04-15T18:17:46.298Z,1284.00
2023-04-15T18:20:13.030Z,1315.00
2023-04-15T18:22:39.612Z,1247.13
2023-04-15T18:25:06.934Z,1364.35
2023-04-15T18:27:34.539Z,1342.38
2023-04-15T18:30:01.189Z,1326.05
2023-04-15T18:32:31.684Z,1312.72
2023-04-15T18:34:58.465Z,1357.90
2023-04-15T18:37:26.184Z,1311.35
2023-04-15T18:39:54.112Z,1224.95
2023-04-15T18:42:21.162Z,1319.05
2023-04-15T18:44:48.208Z,1560.15
2023-04-15T18:47:15.355Z,1599.78
2023-04-15T18:49:42.046Z,1603.40
2023-04-15T18:52:12.160Z,1581.50
2023-04-15T18:54:38.675Z,1610.88
2023-04-15T18:57:06.458Z,1591.15
2023-04-15T18:59:33.661Z,1582.38
2023-04-15T19:02:00.463Z,1591.28
2023-04-15T19:04:29.329Z,1586.65
2023-04-15T19:06:56.316Z,1610.97
2023-04-15T19:09:22.947Z,1566.43
2023-04-15T19:11:49.477Z,1574.38
2023-04-15T19:14:17.315Z,1613.75
2023-04-15T19:16:43.830Z,1590.30
2023-04-15T19:19:10.434Z,1593.97
2023-04-15T19:21:37.013Z,1591.78
2023-04-15T19:24:03.656Z,1598.65
2023-04-15T19:26:30.508Z,1604.90
2023-04-15T19:28:58.896Z,1629.88
2023-04-15T19:31:26.257Z,1590.32
2023-04-15T19:33:53.024Z,1605.63
2023-04-15T19:36:19.663Z,1600.35
2023-04-15T19:38:46.203Z,1592.63
2023-04-15T19:41:13.099Z,1602.95
2023-04-15T19:43:39.628Z,1588.97
2023-04-15T19:46:07.000Z,1570.45
2023-04-15T19:48:33.599Z,1596.13
2023-04-15T19:51:00.589Z,1595.63
2023-04-15T19:53:27.210Z,1585.00
2023-04-15T19:55:53.718Z,1620.65
2023-04-15T19:58:20.287Z,1613.90
2023-04-15T20:00:46.945Z,1581.93
2023-04-15T20:03:13.790Z,1572.38
2023-04-15T20:05:40.433Z,1570.00
2023-04-15T20:08:06.949Z,1592.85
2023-04-15T20:10:33.606Z,1562.22
2023-04-15T20:13:00.205Z,1539.32
2023-04-15T20:15:27.322Z,1554.75
2023-04-15T20:17:54.201Z,1527.05
2023-04-15T20:20:21.566Z,1534.75
2023-04-15T20:22:48.492Z,1526.72
2023-04-15T20:25:15.201Z,1532.88
2023-04-15T20:27:41.750Z,1526.72
2023-04-15T20:30:08.757Z,1525.97
2023-04-15T20:32:36.117Z,1497.13
2023-04-15T20:35:04.497Z,1524.80
2023-04-15T20:37:33.426Z,1523.90
2023-04-15T20:40:01.315Z,1509.38
2023-04-15T20:42:28.213Z,1520.60
2023-04-15T20:44:54.774Z,1530.05
2023-04-15T20:47:21.517Z,1538.03
2023-04-15T20:49:48.200Z,1519.78
2023-04-15T20:52:14.797Z,1535.30
2023-04-15T20:54:41.507Z,1576.93
2023-04-15T20:57:08.034Z,1566.63
2023-04-15T20:59:34.937Z,1544.57
2023-04-15T21:02:01.956Z,1546.07
2023-04-15T21:04:28.571Z,1568.80
2023-04-15T21:06:55.233Z,1595.65
2023-04-15T21:09:21.758Z,1551.00
2023-04-15T21:14:18.889Z,1633.18
2023-04-15T21:16:45.619Z,1594.50
2023-04-15T21:19:12.290Z,1630.53
2023-04-15T21:21:38.849Z,1612.30
2023-04-15T21:24:07.727Z,1584.05
2023-04-15T21:26:35.938Z,1614.72
2023-04-15T21:29:03.053Z,1605.93
2023-04-15T21:31:29.995Z,1590.10
2023-04-15T21:33:56.618Z,1605.63
2023-04-15T21:36:23.229Z,1595.70
2023-04-15T21:38:49.786Z,1604.47
2023-04-15T21:41:16.384Z,1571.47
2023-04-15T21:43:42.941Z,1586.88
2023-04-15T21:46:24.058Z,1559.47
2023-04-15T21:48:52.504Z,1566.55
2023-04-15T21:51:19.114Z,1573.13
2023-04-15T21:53:45.677Z,1540.43
2023-04-15T21:56:12.218Z,1538.13
2023-04-15T21:58:38.819Z,1553.95
2023-04-15T22:01:05.700Z,1525.88
2023-04-15T22:03:34.696Z,1547.30
2023-04-15T22:06:04.843Z,1568.38
2023-04-15T22:08:38.550Z,1553.13
2023-04-15T22:11:31.155Z,1529.22
2023-04-15T22:13:58.650Z,1555.88
2023-04-15T22:16:28.585Z,1578.22
2023-04-15T22:18:56.071Z,1540.95
2023-04-15T22:21:23.206Z,1499.07
2023-04-15T22:23:49.891Z,1531.10
2023-04-15T22:26:16.707Z,1463.82
2023-04-15T22:28:43.285Z,1500.35
2023-04-15T22:31:10.459Z,1464.40
2023-04-15T22:33:37.143Z,1469.05
2023-04-15T22:36:03.830Z,1441.28
2023-04-15T22:38:30.489Z,1498.70
2023-04-15T22:40:57.049Z,1463.22
2023-04-15T22:43:23.809Z,1474.20
2023-04-15T22:45:51.084Z,1439.50
2023-04-15T22:48:20.780Z,1358.25
2023-04-15T22:50:47.499Z,1509.70
2023-04-15T22:53:15.661Z,1506.70
2023-04-15T22:55:47.118Z,1496.93
2023-04-15T22:58:14.300Z,1516.32
2023-04-15T23:00:40.903Z,1504.03
2023-04-15T23:03:07.763Z,1408.18
2023-04-15T23:05:34.544Z,1518.57
2023-04-15T23:08:01.201Z,1541.45
2023-04-15T23:10:28.156Z,1583.18
2023-04-15T23:12:54.738Z,1565.97
2023-04-15T23:15:21.340Z,1543.38
2023-04-15T23:17:47.893Z,1539.63
2023-04-15T23:20:16.272Z,1512.78
2023-04-15T23:22:43.312Z,1509.25
2023-04-15T23:25:10.197Z,1558.78
2023-04-15T23:27:36.924Z,1508.72
2023-04-15T23:30:03.965Z,1491.38
2023-04-15T23:32:30.750Z,1496.82
2023-04-15T23:34:57.417Z,1523.57
2023-04-15T23:37:23.992Z,1498.43
2023-04-15T23:39:50.531Z,1473.20
2023-04-15T23:42:17.276Z,1355.70
2023-04-15T23:44:43.823Z,1393.03
2023-04-15T23:47:10.670Z,1354.72
2023-04-15T23:49:37.203Z,1330.78
2023-04-15T23:52:04.154Z,1328.75
2023-04-15T23:54:30.822Z,1388.53
2023-04-15T23:56:57.394Z,1355.07
2023-04-15T23:59:24.064Z,1332.72
